createdAt,value
2023-04-01T00:01:15.058Z,1008.46
2023-04-01T00:03:43.589Z,1008.44
2023-04-01T00:06:13.472Z,1008.38
2023-04-01T00:08:40.192Z,1008.33
2023-04-01T00:11:09.622Z,1008.30
2023-04-01T00:13:36.358Z,1008.49
2023-04-01T00:16:03.990Z,1008.55
2023-04-01T00:18:33.342Z,1008.59
2023-04-01T00:21:01.519Z,1008.70
2023-04-01T00:23:28.291Z,1008.73
2023-04-01T00:25:55.017Z,1008.52
2023-04-01T00:28:21.850Z,1008.58
2023-04-01T00:30:48.992Z,1008.65
2023-04-01T00:33:16.664Z,1008.82
2023-04-01T00:35:43.458Z,1008.73
2023-04-01T00:38:14.329Z,1008.73
2023-04-01T00:40:43.746Z,1008.74
2023-04-01T00:43:13.371Z,1008.67
2023-04-01T00:45:41.984Z,1008.49
2023-04-01T00:48:13.328Z,1008.49
2023-04-01T00:50:43.270Z,1008.47
2023-04-01T00:53:12.705Z,1008.64
2023-04-01T00:55:44.818Z,1008.59
2023-04-01T00:58:17.116Z,1008.61
2023-04-01T01:00:44.349Z,1008.69
2023-04-01T01:03:11.204Z,1008.78
2023-04-01T01:05:53.706Z,1008.76
2023-04-01T01:08:31.305Z,1008.61
2023-04-01T01:10:58.063Z,1008.70
2023-04-01T01:13:31.124Z,1008.68
2023-04-01T01:16:02.723Z,1008.64
2023-04-01T01:18:36.765Z,1008.55
2023-04-01T01:21:25.579Z,1008.73
2023-04-01T01:24:19.714Z,1008.69
2023-04-01T01:27:01.701Z,1008.78
2023-04-01T01:29:56.866Z,1008.70
2023-04-01T01:32:39.493Z,1008.70
2023-04-01T01:35:28.793Z,1008.83
2023-04-01T01:38:00.856Z,1008.83
2023-04-01T01:40:29.933Z,1008.79
2023-04-01T01:43:02.853Z,1008.79
2023-04-01T01:45:31.810Z,1008.81
2023-04-01T01:48:01.099Z,1008.76
2023-04-01T01:50:29.718Z,1008.58
2023-04-01T01:53:06.083Z,1008.52
2023-04-01T01:55:35.048Z,1008.46
2023-04-01T01:58:06.878Z,1008.49
2023-04-01T02:00:34.914Z,1008.41
2023-04-01T02:03:02.144Z,1008.29
2023-04-01T02:05:32.836Z,1008.34
2023-04-01T02:08:05.956Z,1008.63
2023-04-01T02:10:38.215Z,1008.69
2023-04-01T02:13:11.583Z,1008.62
2023-04-01T02:15:43.745Z,1008.77
2023-04-01T02:18:12.900Z,1008.63
2023-04-01T02:20:42.401Z,1008.65
2023-04-01T02:23:11.353Z,1008.72
2023-04-01T02:25:39.050Z,1008.69
2023-04-01T02:28:08.492Z,1008.80
2023-04-01T02:30:39.479Z,1008.85
2023-04-01T02:33:06.772Z,1008.79
2023-04-01T02:35:36.223Z,1008.75
2023-04-01T02:38:07.558Z,1008.70
2023-04-01T02:40:46.535Z,1008.67
2023-04-01T02:43:13.673Z,1008.69
2023-04-01T02:45:40.679Z,1008.73
2023-04-01T02:48:07.620Z,1008.83
2023-04-01T02:50:34.453Z,1008.92
2023-04-01T02:53:01.433Z,1008.82
2023-04-01T02:55:29.632Z,1008.85
2023-04-01T02:57:56.547Z,1008.91
2023-04-01T03:00:23.457Z,1008.83
2023-04-01T03:02:50.309Z,1008.78
2023-04-01T03:05:17.233Z,1008.91
2023-04-01T03:07:44.088Z,1008.96
2023-04-01T03:10:11.148Z,1008.97
2023-04-01T03:12:40.835Z,1009.08
2023-04-01T03:15:10.948Z,1009.06
2023-04-01T03:17:38.678Z,1009.14
2023-04-01T03:20:06.736Z,1009.10
2023-04-01T03:22:33.474Z,1009.06
2023-04-01T03:25:00.233Z,1009.15
2023-04-01T03:27:26.967Z,1009.14
2023-04-01T03:29:55.267Z,1009.17
2023-04-01T03:32:22.151Z,1009.16
2023-04-01T03:34:49.031Z,1009.21
2023-04-01T03:37:15.755Z,1009.29
2023-04-01T03:39:44.501Z,1009.23
2023-04-01T03:42:11.375Z,1009.19
2023-04-01T03:44:38.133Z,1009.25
2023-04-01T03:47:07.772Z,1009.28
2023-04-01T03:49:34.669Z,1009.25
2023-04-01T03:52:01.433Z,1009.22
2023-04-01T03:54:28.237Z,1009.27
2023-04-01T03:56:55.047Z,1009.28
2023-04-01T03:59:21.903Z,1009.25
2023-04-01T04:01:48.750Z,1009.29
2023-04-01T04:04:16.933Z,1009.46
2023-04-01T04:06:43.738Z,1009.37
2023-04-01T04:09:10.526Z,1009.31
2023-04-01T04:11:37.477Z,1009.33
2023-04-01T04:14:04.361Z,1009.28
2023-04-01T04:16:31.460Z,1009.30
2023-04-01T04:18:58.234Z,1009.30
2023-04-01T04:21:26.441Z,1009.25
2023-04-01T04:23:53.241Z,1009.31
2023-04-01T04:26:20.398Z,1009.31
2023-04-01T04:28:47.152Z,1009.31
2023-04-01T04:31:19.942Z,1009.28
2023-04-01T04:33:46.691Z,1009.27
2023-04-01T04:36:13.905Z,1009.22
2023-04-01T04:38:42.053Z,1009.17
2023-04-01T04:41:10.415Z,1009.31
2023-04-01T04:43:37.264Z,1009.23
2023-04-01T04:46:07.408Z,1009.21
2023-04-01T04:48:34.186Z,1009.11
2023-04-01T04:51:00.916Z,1009.14
2023-04-01T04:53:27.959Z,1009.21
2023-04-01T04:55:56.156Z,1009.33
2023-04-01T04:58:23.006Z,1009.26
2023-04-01T05:00:49.862Z,1009.33
2023-04-01T05:03:16.649Z,1009.34
2023-04-01T05:05:50.021Z,1009.39
2023-04-01T05:08:16.760Z,1009.48
2023-04-01T05:10:43.495Z,1009.46
2023-04-01T05:13:11.653Z,1009.40
2023-04-01T05:15:38.449Z,1009.46
2023-04-01T05:18:05.427Z,1009.42
2023-04-01T05:20:32.164Z,1009.40
2023-04-01T05:22:59.791Z,1009.47
2023-04-01T05:25:26.853Z,1009.39
2023-04-01T05:27:53.697Z,1009.47
2023-04-01T05:30:22.251Z,1009.40
2023-04-01T05:32:49.162Z,1009.29
2023-04-01T05:35:16.133Z,1009.38
2023-04-01T05:37:42.894Z,1009.30
2023-04-01T05:40:10.639Z,1009.34
2023-04-01T05:42:38.460Z,1009.38
2023-04-01T05:45:06.462Z,1009.38
2023-04-01T05:47:34.636Z,1009.42
2023-04-01T05:50:01.581Z,1009.45
2023-04-01T05:52:28.412Z,1009.37
2023-04-01T05:54:55.181Z,1009.38
2023-04-01T05:57:22.006Z,1009.33
2023-04-01T05:59:48.831Z,1009.30
2023-04-01T06:02:18.826Z,1009.38
2023-04-01T06:04:47.181Z,1009.37
2023-04-01T06:07:14.742Z,1009.36
2023-04-01T06:09:41.958Z,1009.24
2023-04-01T06:12:41.513Z,1009.30
2023-04-01T06:15:21.632Z,1009.14
2023-04-01T06:18:05.108Z,1009.05
2023-04-01T06:20:44.361Z,1008.80
2023-04-01T06:23:19.459Z,1008.55
2023-04-01T06:26:02.130Z,1008.35
2023-04-01T06:28:48.287Z,1008.35
2023-04-01T06:31:27.035Z,1008.31
2023-04-01T06:34:16.078Z,1008.17
2023-04-01T06:37:07.771Z,1008.09
2023-04-01T06:39:50.402Z,1008.06
2023-04-01T06:42:40.378Z,1008.10
2023-04-01T06:45:21.342Z,1008.09
2023-04-01T06:48:02.137Z,1008.12
2023-04-01T06:50:36.175Z,1008.17
2023-04-01T06:53:10.444Z,1008.25
2023-04-01T06:55:42.495Z,1008.34
2023-04-01T06:58:17.652Z,1008.47
2023-04-01T07:00:47.344Z,1008.40
2023-04-01T07:03:21.435Z,1008.34
2023-04-01T07:05:48.637Z,1008.37
2023-04-01T07:08:22.183Z,1008.35
2023-04-01T07:10:54.573Z,1008.29
2023-04-01T07:13:25.695Z,1008.26
2023-04-01T07:16:10.957Z,1008.32
2023-04-01T07:18:43.829Z,1008.34
2023-04-01T07:21:23.000Z,1008.29
2023-04-01T07:23:53.929Z,1008.25
2023-04-01T07:26:22.730Z,1008.35
2023-04-01T07:28:49.890Z,1008.41
2023-04-01T07:31:44.099Z,1008.40
2023-04-01T07:34:18.794Z,1008.34
2023-04-01T07:36:53.486Z,1008.24
2023-04-01T07:39:36.312Z,1008.16
2023-04-01T07:42:10.142Z,1008.19
2023-04-01T07:44:44.018Z,1008.06
2023-04-01T07:47:23.138Z,1008.09
2023-04-01T07:50:00.869Z,1008.07
2023-04-01T07:52:36.701Z,1007.87
2023-04-01T07:55:14.852Z,1007.79
2023-04-01T07:57:50.186Z,1007.70
2023-04-01T08:00:21.354Z,1007.51
2023-04-01T08:03:08.935Z,1007.59
2023-04-01T08:05:47.273Z,1007.54
2023-04-01T08:08:25.030Z,1007.61
2023-04-01T08:10:58.547Z,1007.49
2023-04-01T08:13:34.480Z,1007.76
2023-04-01T08:16:10.742Z,1007.79
2023-04-01T08:18:46.153Z,1007.74
2023-04-01T08:21:17.909Z,1007.94
2023-04-01T08:23:47.004Z,1007.85
2023-04-01T08:26:24.219Z,1007.83
2023-04-01T08:28:58.360Z,1007.79
2023-04-01T08:31:33.520Z,1007.63
2023-04-01T08:34:06.658Z,1007.69
2023-04-01T08:36:37.269Z,1007.85
2023-04-01T08:39:09.171Z,1007.79
2023-04-01T08:42:01.688Z,1007.69
2023-04-01T08:44:52.117Z,1007.39
2023-04-01T08:47:35.125Z,1007.32
2023-04-01T08:50:29.101Z,1007.26
2023-04-01T08:53:04.236Z,1007.18
2023-04-01T08:55:41.426Z,1007.24
2023-04-01T08:58:43.930Z,1007.22
2023-04-01T09:01:23.686Z,1007.27
2023-04-01T09:04:07.626Z,1007.14
2023-04-01T09:06:45.292Z,1006.95
2023-04-01T09:09:48.346Z,1006.66
2023-04-01T09:12:38.546Z,1006.46
2023-04-01T09:15:36.782Z,1006.40
2023-04-01T09:18:40.400Z,1006.21
2023-04-01T09:21:35.394Z,1006.20
2023-04-01T09:24:45.206Z,1006.19
2023-04-01T09:27:20.764Z,1006.13
2023-04-01T09:30:25.681Z,1006.46
2023-04-01T09:33:16.459Z,1006.29
2023-04-01T09:35:47.883Z,1006.14
2023-04-01T09:38:22.945Z,1006.12
2023-04-01T09:40:56.750Z,1005.91
2023-04-01T09:43:28.445Z,1005.87
2023-04-01T09:46:10.379Z,1006.08
2023-04-01T09:49:05.763Z,1006.02
2023-04-01T09:51:40.011Z,1005.85
2023-04-01T09:54:14.699Z,1005.56
2023-04-01T09:57:07.403Z,1005.31
2023-04-01T10:00:19.707Z,1005.23
2023-04-01T10:03:31.795Z,1004.93
2023-04-01T10:06:47.766Z,1004.70
2023-04-01T10:09:54.245Z,1004.53
2023-04-01T10:12:50.936Z,1004.34
2023-04-01T10:15:45.325Z,1004.21
2023-04-01T10:18:35.941Z,1004.17
2023-04-01T10:21:24.479Z,1004.34
2023-04-01T10:24:05.980Z,1004.81
2023-04-01T10:27:03.948Z,1004.61
2023-04-01T10:30:09.933Z,1004.58
2023-04-01T10:33:31.019Z,1004.23
2023-04-01T10:36:26.824Z,1004.16
2023-04-01T10:39:39.023Z,1004.12
2023-04-01T10:42:46.237Z,1003.92
2023-04-01T10:45:40.895Z,1003.85
2023-04-01T10:48:40.494Z,1003.73
2023-04-01T10:51:26.339Z,1003.61
2023-04-01T10:54:37.904Z,1003.64
2023-04-01T10:57:17.419Z,1003.70
2023-04-01T11:00:12.087Z,1003.95
2023-04-01T11:37:43.879Z,1003.91
2023-04-01T11:40:25.242Z,1003.80
2023-04-01T11:42:58.339Z,1003.68
2023-04-01T11:45:35.892Z,1003.42
2023-04-01T11:48:23.712Z,1003.24
2023-04-01T11:51:05.531Z,1003.12
2023-04-01T11:53:45.526Z,1003.23
2023-04-01T11:56:33.596Z,1003.27
2023-04-01T11:59:24.310Z,1003.26
2023-04-01T12:02:04.713Z,1003.24
2023-04-01T12:04:55.944Z,1003.36
2023-04-01T12:07:34.003Z,1003.13
2023-04-01T12:10:16.632Z,1002.99
2023-04-01T12:13:00.649Z,1003.10
2023-04-01T12:15:38.415Z,1002.92
2023-04-01T12:18:17.325Z,1002.93
2023-04-01T12:20:51.286Z,1002.84
2023-04-01T12:23:47.109Z,1002.81
2023-04-01T12:26:44.855Z,1002.90
2023-04-01T12:29:35.197Z,1003.19
2023-04-01T12:32:17.046Z,1003.26
2023-04-01T12:35:03.647Z,1003.27
2023-04-01T12:37:37.241Z,1003.62
2023-04-01T12:40:25.529Z,1003.64
2023-04-01T12:43:04.862Z,1003.54
2023-04-01T12:45:33.111Z,1003.48
2023-04-01T12:48:33.522Z,1003.51
2023-04-01T12:51:27.516Z,1003.57
2023-04-01T12:54:30.055Z,1003.68
2023-04-01T12:57:10.272Z,1003.97
2023-04-01T13:00:03.793Z,1004.12
2023-04-01T13:02:46.049Z,1004.47
2023-04-01T13:05:35.415Z,1004.54
2023-04-01T13:08:27.844Z,1004.43
2023-04-01T13:11:09.621Z,1004.43
2023-04-01T13:14:21.575Z,1004.54
2023-04-01T13:17:09.395Z,1004.58
2023-04-01T13:19:58.010Z,1004.64
2023-04-01T13:22:41.648Z,1004.71
2023-04-01T13:25:22.096Z,1004.79
2023-04-01T13:27:53.071Z,1004.78
2023-04-01T13:30:27.427Z,1005.02
2023-04-01T13:33:02.809Z,1005.05
2023-04-01T13:35:40.070Z,1005.14
2023-04-01T13:38:25.080Z,1005.20
2023-04-01T13:41:04.162Z,1005.27
2023-04-01T13:43:35.766Z,1005.37
2023-04-01T13:46:36.487Z,1005.45
2023-04-01T13:49:28.918Z,1005.50
2023-04-01T13:52:32.178Z,1005.33
2023-04-01T13:55:34.998Z,1005.29
2023-04-01T13:58:39.983Z,1005.21
2023-04-01T14:01:14.259Z,1005.06
2023-04-01T14:03:55.584Z,1004.94
2023-04-01T14:06:32.218Z,1004.57
2023-04-01T14:09:31.440Z,1004.53
2023-04-01T14:12:05.694Z,1004.65
2023-04-01T14:14:49.780Z,1004.47
2023-04-01T14:17:36.376Z,1004.43
2023-04-01T14:20:21.672Z,1004.34
2023-04-01T14:23:04.872Z,1004.19
2023-04-01T14:25:51.461Z,1004.09
2023-04-01T14:28:29.559Z,1004.06
2023-04-01T14:31:17.580Z,1004.05
2023-04-01T14:33:51.828Z,1003.92
2023-04-01T14:36:39.268Z,1003.90
2023-04-01T14:39:28.771Z,1003.92
2023-04-01T14:42:19.083Z,1003.99
2023-04-01T14:45:16.884Z,1004.02
2023-04-01T14:47:48.369Z,1004.11
2023-04-01T14:50:18.187Z,1004.19
2023-04-01T14:52:52.883Z,1004.26
2023-04-01T14:55:30.821Z,1004.38
2023-04-01T14:58:09.136Z,1004.48
2023-04-01T15:00:48.525Z,1004.63
2023-04-01T15:03:22.665Z,1004.69
2023-04-01T15:05:55.856Z,1004.70
2023-04-01T15:08:24.294Z,1004.65
2023-04-01T15:11:23.133Z,1004.69
2023-04-01T15:14:09.909Z,1004.72
2023-04-01T15:16:48.870Z,1004.59
2023-04-01T15:19:24.983Z,1004.51
2023-04-01T15:22:28.581Z,1004.44
2023-04-01T15:25:06.931Z,1004.37
2023-04-01T15:27:45.272Z,1004.37
2023-04-01T15:30:33.808Z,1004.41
2023-04-01T15:33:23.941Z,1004.35
2023-04-01T15:35:58.192Z,1004.56
2023-04-01T15:38:34.017Z,1004.58
2023-04-01T15:41:12.307Z,1004.64
2023-04-01T15:43:44.453Z,1004.65
2023-04-01T15:46:37.001Z,1004.61
2023-04-01T16:16:25.218Z,1005.24
2023-04-01T16:19:09.259Z,1005.27
2023-04-01T16:21:42.744Z,1005.33
2023-04-01T16:24:21.170Z,1005.45
2023-04-01T16:26:54.660Z,1005.43
2023-04-01T16:29:28.917Z,1005.41
2023-04-01T16:32:01.947Z,1005.52
2023-04-01T16:34:35.526Z,1005.67
2023-04-01T16:37:08.855Z,1005.85
2023-04-01T16:39:43.097Z,1005.85
2023-04-01T16:42:17.559Z,1006.10
2023-04-01T16:44:53.697Z,1005.91
2023-04-01T16:47:29.080Z,1005.90
2023-04-01T16:50:06.336Z,1005.86
2023-04-01T16:52:49.290Z,1005.86
2023-04-01T16:55:19.299Z,1005.92
2023-04-01T16:57:51.786Z,1005.88
2023-04-01T17:00:27.048Z,1006.02
2023-04-01T17:03:05.333Z,1006.17
2023-04-01T17:05:46.836Z,1006.39
2023-04-01T17:08:23.722Z,1006.51
2023-04-01T17:10:54.463Z,1006.66
2023-04-01T17:13:36.486Z,1006.81
2023-04-01T17:16:18.392Z,1006.81
2023-04-01T17:18:52.956Z,1006.82
2023-04-01T17:21:27.477Z,1006.98
2023-04-01T17:24:04.704Z,1007.06
2023-04-01T17:26:38.300Z,1007.21
2023-04-01T17:29:12.338Z,1007.30
2023-04-01T17:31:47.653Z,1007.42
2023-04-01T17:34:31.652Z,1007.45
2023-04-01T17:37:10.496Z,1007.32
2023-04-01T17:39:54.236Z,1007.51
2023-04-01T17:42:31.829Z,1007.47
2023-04-01T17:45:04.296Z,1007.57
2023-04-01T17:47:48.811Z,1007.56
2023-04-01T17:50:23.147Z,1007.59
2023-04-01T17:53:00.935Z,1007.55
2023-04-01T17:55:45.230Z,1007.63
2023-04-01T17:58:19.060Z,1007.76
2023-04-01T18:00:57.430Z,1007.73
2023-04-01T18:03:45.049Z,1007.67
2023-04-01T18:06:18.773Z,1007.75
2023-04-01T18:08:59.821Z,1007.83
2023-04-01T18:11:35.934Z,1007.96
2023-04-01T18:14:29.168Z,1007.94
2023-04-01T18:17:14.035Z,1007.97
2023-04-01T18:19:54.733Z,1008.04
2023-04-01T18:22:29.614Z,1008.15
2023-04-01T18:25:06.362Z,1008.20
2023-04-01T18:27:38.996Z,1008.18
2023-04-01T18:30:14.478Z,1008.17
2023-04-01T18:32:49.144Z,1008.18
2023-04-01T18:35:22.284Z,1008.18
2023-04-01T18:37:56.537Z,1008.18
2023-04-01T18:40:26.867Z,1008.13
2023-04-01T18:43:10.521Z,1008.18
2023-04-01T18:45:42.978Z,1008.24
2023-04-01T18:48:23.650Z,1008.42
2023-04-01T18:50:56.052Z,1008.47
2023-04-01T18:53:30.068Z,1008.54
2023-04-01T18:56:00.241Z,1008.60
2023-04-01T18:58:34.871Z,1008.67
2023-04-01T19:01:29.415Z,1008.72
2023-04-01T19:04:05.375Z,1008.80
2023-04-01T19:06:35.981Z,1008.81
2023-04-01T19:09:25.385Z,1008.99
2023-04-01T19:12:14.771Z,1009.13
2023-04-01T19:14:55.197Z,1009.32
2023-04-01T19:17:34.090Z,1009.23
2023-04-01T19:20:10.344Z,1009.23
2023-04-01T19:22:57.747Z,1009.36
2023-04-01T19:25:31.528Z,1009.42
2023-04-01T19:28:08.459Z,1009.43
2023-04-01T19:30:52.130Z,1009.62
2023-04-01T19:33:29.845Z,1009.67
2023-04-01T19:36:04.756Z,1009.81
2023-04-01T19:38:38.537Z,1009.85
2023-04-01T19:41:20.936Z,1009.88
2023-04-01T19:44:00.026Z,1009.91
2023-04-01T19:46:33.589Z,1009.94
2023-04-01T19:49:12.859Z,1009.99
2023-04-01T19:51:48.795Z,1009.90
2023-04-01T19:54:30.081Z,1009.95
2023-04-01T19:57:07.593Z,1009.94
2023-04-01T19:59:41.071Z,1009.95
2023-04-01T20:02:34.231Z,1010.11
2023-04-01T20:05:17.318Z,1010.20
2023-04-01T20:07:49.421Z,1010.16
2023-04-01T20:10:23.183Z,1010.20
2023-04-01T20:12:58.859Z,1010.29
2023-04-01T20:15:33.865Z,1010.33
2023-04-01T20:18:04.667Z,1010.39
2023-04-01T20:20:33.027Z,1010.44
2023-04-01T20:23:08.772Z,1010.47
2023-04-01T20:25:44.579Z,1010.62
2023-04-01T20:28:21.413Z,1010.81
2023-04-01T20:31:07.200Z,1010.70
2023-04-01T20:34:06.995Z,1010.69
2023-04-01T20:36:41.131Z,1010.87
2023-04-01T20:39:28.238Z,1010.86
2023-04-01T20:42:20.145Z,1011.00
2023-04-01T20:44:56.470Z,1010.82
2023-04-01T20:47:45.846Z,1010.88
2023-04-01T20:50:25.795Z,1010.88
2023-04-01T20:52:58.276Z,1010.86
2023-04-01T20:55:51.051Z,1011.02
2023-04-01T20:58:25.179Z,1010.97
2023-04-01T21:00:58.450Z,1010.97
2023-04-01T21:03:39.140Z,1011.01
2023-04-01T21:06:32.352Z,1010.95
2023-04-01T21:09:19.708Z,1010.97
2023-04-01T21:11:57.295Z,1010.98
2023-04-01T21:14:55.689Z,1011.00
2023-04-01T21:17:39.458Z,1010.93
2023-04-01T21:20:24.576Z,1010.98
2023-04-01T21:23:09.645Z,1011.12
2023-04-01T21:26:00.491Z,1011.17
2023-04-01T21:28:38.272Z,1011.28
2023-04-01T21:31:23.950Z,1011.24
2023-04-01T21:34:17.532Z,1011.32
2023-04-01T21:36:58.936Z,1011.23
2023-04-01T21:39:49.332Z,1011.25
2023-04-01T21:42:26.223Z,1011.30
2023-04-01T21:45:09.284Z,1011.34
2023-04-01T21:48:15.697Z,1011.30
2023-04-01T21:51:16.028Z,1011.35
2023-04-01T21:54:32.790Z,1011.50
2023-04-01T21:57:53.797Z,1011.62
2023-04-01T22:00:22.080Z,1011.67
2023-04-01T22:03:27.486Z,1011.76
2023-04-01T22:06:01.620Z,1011.78
2023-04-01T22:08:43.182Z,1011.73
2023-04-01T22:11:20.678Z,1011.70
2023-04-01T22:13:50.773Z,1011.76
2023-04-01T22:16:24.807Z,1011.71
2023-04-01T22:19:00.805Z,1011.79
2023-04-01T22:21:34.167Z,1011.76
2023-04-01T22:24:08.080Z,1011.73
2023-04-01T22:26:40.644Z,1011.76
2023-04-01T22:29:11.469Z,1011.71
2023-04-01T22:31:45.478Z,1011.79
2023-04-01T22:34:18.913Z,1011.78
2023-04-01T22:36:52.460Z,1011.87
2023-04-01T22:39:41.090Z,1011.85
2023-04-01T22:42:25.185Z,1011.95
2023-04-01T22:45:03.134Z,1011.92
2023-04-01T22:47:41.418Z,1011.90
2023-04-01T22:50:15.283Z,1011.92
2023-04-01T22:52:44.539Z,1011.89
2023-04-01T22:55:16.540Z,1011.98
2023-04-01T22:57:50.413Z,1012.01
2023-04-01T23:00:23.407Z,1011.99
2023-04-01T23:03:05.639Z,1011.93
2023-04-01T23:05:34.981Z,1011.99
2023-04-01T23:08:26.246Z,1011.97
2023-04-01T23:10:56.023Z,1011.93
2023-04-01T23:13:30.798Z,1012.01
2023-04-01T23:15:58.657Z,1012.10
2023-04-01T23:18:34.797Z,1012.19
2023-04-01T23:21:10.503Z,1012.17
2023-04-01T23:23:47.464Z,1012.14
2023-04-01T23:26:19.466Z,1012.21
2023-04-01T23:28:50.709Z,1012.26
2023-04-01T23:31:28.857Z,1012.32
2023-04-01T23:33:57.544Z,1012.30
2023-04-01T23:36:24.796Z,1012.30
2023-04-01T23:38:52.178Z,1012.23
2023-04-01T23:41:23.649Z,1012.20
2023-04-01T23:43:56.565Z,1012.20
2023-04-01T23:46:23.613Z,1012.16
2023-04-01T23:48:51.076Z,1012.17
2023-04-01T23:51:21.441Z,1012.25
2023-04-01T23:53:57.020Z,1012.36
2023-04-01T23:56:24.256Z,1012.43
2023-04-01T23:58:53.888Z,1012.51
